createdAt,value
2022-08-01T00:00:38.749Z,6.38
2022-08-01T00:03:05.771Z,5.32
2022-08-01T00:05:32.832Z,8.25
2022-08-01T00:08:00.119Z,6.13
2022-08-01T00:10:26.907Z,9.63
2022-08-01T00:12:53.502Z,9.27
2022-08-01T00:15:20.100Z,6.30
2022-08-01T00:17:46.730Z,8.93
2022-08-01T00:20:15.166Z,10.30
2022-08-01T00:22:41.907Z,7.25
2022-08-01T00:25:08.758Z,8.82
2022-08-01T00:27:37.870Z,9.68
2022-08-01T00:30:11.507Z,8.48
2022-08-01T00:32:42.588Z,8.20
2022-08-01T00:35:09.439Z,7.47
2022-08-01T00:37:36.023Z,7.03
2022-08-01T00:40:02.705Z,7.53
2022-08-01T00:42:29.373Z,9.18
2022-08-01T00:44:56.020Z,11.55
2022-08-01T00:47:22.639Z,10.38
2022-08-01T00:49:49.349Z,10.38
2022-08-01T00:52:16.053Z,13.32
2022-08-01T00:54:43.301Z,10.05
2022-08-01T00:57:10.787Z,9.95
2022-08-01T00:59:37.791Z,10.97
2022-08-01T01:02:15.766Z,11.68
2022-08-01T01:04:43.493Z,12.07
2022-08-01T01:07:35.756Z,10.48
2022-08-01T01:10:05.808Z,12.48
2022-08-01T01:12:38.889Z,11.10
2022-08-01T01:15:54.728Z,10.95
2022-08-01T01:18:43.517Z,14.90
2022-08-01T01:21:19.295Z,12.18
2022-08-01T01:24:12.242Z,13.65
2022-08-01T01:26:51.088Z,15.60
2022-08-01T01:29:29.167Z,11.98
2022-08-01T01:32:06.728Z,11.80
2022-08-01T01:34:37.320Z,14.48
2022-08-01T01:37:07.683Z,11.25
2022-08-01T01:39:36.056Z,14.60
2022-08-01T01:42:05.816Z,12.27
2022-08-01T01:44:33.563Z,15.82
2022-08-01T01:47:01.152Z,12.15
2022-08-01T01:49:30.818Z,11.98
2022-08-01T01:52:02.461Z,15.57
2022-08-01T01:54:34.548Z,11.30
2022-08-01T01:57:03.479Z,12.80
2022-08-01T01:59:33.719Z,16.02
2022-08-01T02:02:06.356Z,13.82
2022-08-01T02:04:36.191Z,12.20
2022-08-01T02:07:03.943Z,17.88
2022-08-01T02:09:32.699Z,12.02
2022-08-01T02:12:08.950Z,12.52
2022-08-01T02:14:36.664Z,12.50
2022-08-01T02:17:04.972Z,13.10
2022-08-01T02:19:33.334Z,14.13
2022-08-01T02:22:15.152Z,13.18
2022-08-01T02:24:46.364Z,11.82
2022-08-01T02:27:16.343Z,13.20
2022-08-01T02:29:50.881Z,11.70
2022-08-01T02:32:25.292Z,14.02
2022-08-01T02:34:53.310Z,15.38
2022-08-01T02:37:21.956Z,14.02
2022-08-01T02:39:53.589Z,15.43
2022-08-01T02:42:21.059Z,12.48
2022-08-01T02:44:50.108Z,12.20
2022-08-01T02:47:20.573Z,12.30
2022-08-01T02:49:53.661Z,12.07
2022-08-01T02:52:23.962Z,14.65
2022-08-01T02:54:54.197Z,12.80
2022-08-01T02:57:22.570Z,15.07
2022-08-01T02:59:53.655Z,16.27
2022-08-01T03:02:24.801Z,13.25
2022-08-01T03:04:56.881Z,13.77
2022-08-01T03:07:24.903Z,12.57
2022-08-01T03:10:02.698Z,14.20
2022-08-01T03:12:32.194Z,13.13
2022-08-01T03:15:00.714Z,11.98
2022-08-01T03:17:29.715Z,16.30
2022-08-01T03:19:59.613Z,14.33
2022-08-01T03:22:28.942Z,13.60
2022-08-01T03:25:00.137Z,13.88
2022-08-01T03:27:27.010Z,16.08
2022-08-01T03:29:56.934Z,13.43
2022-08-01T03:32:24.447Z,13.23
2022-08-01T03:34:51.377Z,11.20
2022-08-01T03:37:30.529Z,14.40
2022-08-01T03:40:11.923Z,13.63
2022-08-01T03:42:44.132Z,11.20
2022-08-01T03:45:20.502Z,12.60
2022-08-01T03:47:49.857Z,11.43
2022-08-01T03:50:22.344Z,11.57
2022-08-01T03:52:51.441Z,12.52
2022-08-01T03:55:19.628Z,13.77
2022-08-01T03:57:48.799Z,11.60
2022-08-01T04:00:19.291Z,13.70
2022-08-01T04:02:50.503Z,12.55
2022-08-01T04:05:18.003Z,10.13
2022-08-01T04:07:51.462Z,13.05
2022-08-01T04:10:18.140Z,11.70
2022-08-01T04:12:44.725Z,12.85
2022-08-01T04:15:11.367Z,11.70
2022-08-01T04:17:37.988Z,11.43
2022-08-01T04:20:05.128Z,13.95
2022-08-01T04:22:31.830Z,14.93
2022-08-01T04:25:10.236Z,12.63
2022-08-01T04:27:50.368Z,13.15
2022-08-01T04:30:23.114Z,11.93
2022-08-01T04:32:51.238Z,10.75
2022-08-01T04:35:23.063Z,11.73
2022-08-01T04:38:10.713Z,13.27
2022-08-01T04:40:38.077Z,12.98
2022-08-01T04:43:04.803Z,10.43
2022-08-01T04:45:33.708Z,9.40
2022-08-01T04:48:01.069Z,6.83
2022-08-01T04:50:28.388Z,6.28
2022-08-01T04:52:55.475Z,7.75
2022-08-01T04:55:22.229Z,7.85
2022-08-01T04:57:49.127Z,7.25
2022-08-01T05:00:17.540Z,6.37
2022-08-01T05:02:44.292Z,5.90
2022-08-01T05:05:11.404Z,12.15
2022-08-01T05:07:45.458Z,6.70
2022-08-01T05:10:13.450Z,9.23
2022-08-01T05:12:40.899Z,6.63
2022-08-01T05:15:14.582Z,4.63
2022-08-01T05:17:43.296Z,7.65
2022-08-01T05:20:11.476Z,7.07
2022-08-01T05:22:38.604Z,7.93
2022-08-01T05:25:05.941Z,6.47
2022-08-01T05:27:32.903Z,10.73
2022-08-01T05:30:00.588Z,12.93
2022-08-01T05:32:28.311Z,11.20
2022-08-01T05:34:54.928Z,10.32
2022-08-01T05:37:21.542Z,6.47
2022-08-01T05:39:48.196Z,12.27
2022-08-01T05:42:15.080Z,6.45
2022-08-01T05:44:41.684Z,6.50
2022-08-01T05:47:08.282Z,5.22
2022-08-01T05:49:35.074Z,5.57
2022-08-01T06:05:13.032Z,5.80
2022-08-01T07:38:21.889Z,6.03
2022-08-01T07:40:51.397Z,17.00
2022-08-01T09:03:44.809Z,18.27
2022-08-01T11:36:59.729Z,11.00
2022-08-01T11:50:41.697Z,11.85
2022-08-01T11:53:09.110Z,7.55
2022-08-01T11:55:38.080Z,7.78
2022-08-01T11:58:07.182Z,11.57
2022-08-01T12:00:35.726Z,9.52
2022-08-01T12:03:05.601Z,9.75
2022-08-01T12:05:37.683Z,8.45
2022-08-01T12:08:10.083Z,7.25
2022-08-01T12:10:47.009Z,10.00
2022-08-01T12:13:16.572Z,11.07
2022-08-01T12:15:44.323Z,6.68
2022-08-01T12:18:10.955Z,7.90
2022-08-01T12:20:42.729Z,9.35
2022-08-01T12:23:17.460Z,8.43
2022-08-01T12:25:44.801Z,7.22
2022-08-01T12:28:14.684Z,6.32
2022-08-01T12:30:41.749Z,5.97
2022-08-01T12:33:11.009Z,6.63
2022-08-01T12:35:41.732Z,9.60
2022-08-01T12:38:15.948Z,5.40
2022-08-01T12:40:45.530Z,7.30
2022-08-01T12:43:27.202Z,7.40
2022-08-01T12:46:00.903Z,6.93
2022-08-01T12:48:28.845Z,6.05
2022-08-01T12:50:58.536Z,5.97
2022-08-01T12:53:25.763Z,8.82
2022-08-01T12:55:59.193Z,5.13
2022-08-01T12:58:34.606Z,4.07
2022-08-01T13:01:11.351Z,5.95
2022-08-01T13:03:38.635Z,4.57
2022-08-01T13:06:17.263Z,9.45
2022-08-01T13:08:45.774Z,10.43
2022-08-01T13:11:18.942Z,4.47
2022-08-01T13:13:50.334Z,5.88
2022-08-01T13:16:30.601Z,5.88
2022-08-01T13:19:06.380Z,7.22
2022-08-01T13:21:53.138Z,5.95
2022-08-01T13:24:28.199Z,5.03
2022-08-01T13:27:00.787Z,7.22
2022-08-01T13:29:45.394Z,6.88
2022-08-01T13:32:23.081Z,4.93
2022-08-01T13:35:13.040Z,4.78
2022-08-01T13:37:42.435Z,5.22
2022-08-01T13:40:11.029Z,7.28
2022-08-01T13:42:38.488Z,6.20
2022-08-01T13:45:11.816Z,3.50
2022-08-01T13:48:03.707Z,4.68
2022-08-01T13:50:28.963Z,5.50
2022-08-01T13:52:55.588Z,4.38
2022-08-01T13:55:22.185Z,5.28
2022-08-01T13:57:49.147Z,6.35
2022-08-01T14:00:16.216Z,4.68
2022-08-01T14:02:42.850Z,4.47
2022-08-01T14:05:09.625Z,5.28
2022-08-01T14:07:36.503Z,3.28
2022-08-01T14:10:18.543Z,5.28
2022-08-01T14:12:47.168Z,5.43
2022-08-01T14:15:14.665Z,5.07
2022-08-01T14:17:52.865Z,5.78
2022-08-01T14:20:20.801Z,4.53
2022-08-01T14:22:47.837Z,5.85
2022-08-01T14:25:20.339Z,5.35
2022-08-01T14:28:01.130Z,9.30
2022-08-01T14:30:27.788Z,5.57
2022-08-01T14:32:54.405Z,4.32
2022-08-01T14:35:21.235Z,6.13
2022-08-01T14:37:47.977Z,7.68
2022-08-01T14:40:14.668Z,3.70
2022-08-01T14:42:46.447Z,6.35
2022-08-01T14:45:14.351Z,4.38
2022-08-01T14:47:43.226Z,6.25
2022-08-01T14:50:12.730Z,6.15
2022-08-01T14:52:40.221Z,6.82
2022-08-01T14:55:11.951Z,6.78
2022-08-01T14:57:39.700Z,5.80
2022-08-01T15:00:13.891Z,6.60
2022-08-01T15:02:40.791Z,4.53
2022-08-01T15:05:08.373Z,6.35
2022-08-01T15:07:38.008Z,3.97
2022-08-01T15:10:10.605Z,5.63
2022-08-01T15:12:49.853Z,4.22
2022-08-01T15:15:17.516Z,6.22
2022-08-01T15:17:44.167Z,6.97
2022-08-01T15:20:10.984Z,5.10
2022-08-01T15:22:37.630Z,3.90
2022-08-01T15:25:04.971Z,4.10
2022-08-01T15:27:31.614Z,7.45
2022-08-01T15:29:58.296Z,6.63
2022-08-01T15:32:25.012Z,12.68
2022-08-01T15:34:52.581Z,4.25
2022-08-01T15:37:21.685Z,7.22
2022-08-01T15:39:48.941Z,5.47
2022-08-01T15:42:20.187Z,6.78
2022-08-01T15:44:54.097Z,5.38
2022-08-01T15:47:20.743Z,4.43
2022-08-01T15:49:52.518Z,6.22
2022-08-01T15:52:22.254Z,5.15
2022-08-01T15:54:49.867Z,5.18
2022-08-01T15:57:16.677Z,3.92
2022-08-01T15:59:43.424Z,4.03
2022-08-01T16:02:10.591Z,8.00
2022-08-01T16:04:38.715Z,6.93
2022-08-01T16:07:06.169Z,5.13
2022-08-01T16:09:32.837Z,6.53
2022-08-01T16:11:59.462Z,5.28
2022-08-01T16:14:26.086Z,4.07
2022-08-01T16:16:55.011Z,4.60
2022-08-01T16:19:21.900Z,4.63
2022-08-01T16:21:48.949Z,6.70
2022-08-01T16:24:15.789Z,5.00
2022-08-01T16:26:43.079Z,5.43
2022-08-01T16:29:09.761Z,5.38
2022-08-01T16:31:43.691Z,8.68
2022-08-01T16:34:18.776Z,7.35
2022-08-01T16:36:50.044Z,8.80
2022-08-01T16:39:22.461Z,8.40
2022-08-01T16:41:50.277Z,5.68
2022-08-01T16:44:33.422Z,7.82
2022-08-01T16:47:02.320Z,6.70
2022-08-01T16:49:29.022Z,5.22
2022-08-01T16:51:55.726Z,5.88
2022-08-01T16:54:24.956Z,8.07
2022-08-01T16:56:53.134Z,11.40
2022-08-01T16:59:19.900Z,7.82
2022-08-01T17:01:59.433Z,6.10
2022-08-01T17:04:28.445Z,4.13
2022-08-01T17:06:55.040Z,7.13
2022-08-01T17:09:24.083Z,4.93
2022-08-01T17:11:53.050Z,6.70
2022-08-01T17:14:24.661Z,3.75
2022-08-01T17:16:51.299Z,8.57
2022-08-01T17:19:17.901Z,6.97
2022-08-01T17:21:44.544Z,5.10
2022-08-01T17:24:16.515Z,6.50
2022-08-01T17:26:43.418Z,6.50
2022-08-01T17:29:10.035Z,6.15
2022-08-01T17:31:36.622Z,8.63
2022-08-01T17:34:03.349Z,9.00
2022-08-01T17:36:32.165Z,7.03
2022-08-01T17:38:59.601Z,5.50
2022-08-01T17:41:26.553Z,5.90
2022-08-01T17:43:53.154Z,4.78
2022-08-01T17:46:19.898Z,4.63
2022-08-01T17:48:46.845Z,7.80
2022-08-01T17:51:13.591Z,5.22
2022-08-01T17:53:53.819Z,6.13
2022-08-01T17:56:27.389Z,5.88
2022-08-01T17:58:56.764Z,7.70
2022-08-01T18:01:26.535Z,5.78
2022-08-01T18:03:53.882Z,6.20
2022-08-01T18:06:23.413Z,6.90
2022-08-01T18:08:53.290Z,6.72
2022-08-01T18:11:24.618Z,7.50
2022-08-01T18:13:53.764Z,6.90
2022-08-01T18:16:20.356Z,5.35
2022-08-01T18:18:47.467Z,10.10
2022-08-01T18:21:14.209Z,7.05
2022-08-01T18:23:44.152Z,5.53
2022-08-01T18:26:18.216Z,8.40
2022-08-01T18:28:46.702Z,7.95
2022-08-01T18:31:16.535Z,8.02
2022-08-01T18:33:43.402Z,6.72
2022-08-01T18:36:23.893Z,8.85
2022-08-01T18:38:57.360Z,12.07
2022-08-01T18:41:24.375Z,6.18
2022-08-01T18:43:51.048Z,5.88
2022-08-01T18:46:20.396Z,7.90
2022-08-01T18:48:48.490Z,6.32
2022-08-01T18:51:15.260Z,6.07
2022-08-01T18:53:42.809Z,4.93
2022-08-01T18:56:13.945Z,6.50
2022-08-01T18:58:42.350Z,7.63
2022-08-01T19:01:09.155Z,6.15
2022-08-01T19:03:42.470Z,8.98
2022-08-01T19:06:10.024Z,6.68
2022-08-01T19:08:38.061Z,6.00
2022-08-01T19:11:05.399Z,7.38
2022-08-01T19:13:32.629Z,7.68
2022-08-01T19:15:59.899Z,7.20
2022-08-01T19:18:27.392Z,8.60
2022-08-01T19:20:56.272Z,7.38
2022-08-01T19:23:41.566Z,7.82
2022-08-01T19:26:12.797Z,8.73
2022-08-01T19:28:46.002Z,7.00
2022-08-01T19:31:14.251Z,5.85
2022-08-01T19:33:42.803Z,5.60
2022-08-01T19:36:16.829Z,5.57
2022-08-01T19:38:44.488Z,8.25
2022-08-01T19:41:13.708Z,5.32
2022-08-01T19:43:46.206Z,5.55
2022-08-01T19:46:17.607Z,8.15
2022-08-01T19:48:49.954Z,8.25
2022-08-01T19:51:21.917Z,8.27
2022-08-01T19:53:55.391Z,9.00
2022-08-01T19:56:25.679Z,5.68
2022-08-01T19:58:59.450Z,6.28
2022-08-01T20:01:27.421Z,9.95
2022-08-01T20:03:57.325Z,7.50
2022-08-01T20:06:28.784Z,7.60
2022-08-01T20:08:55.582Z,5.22
2022-08-01T20:11:23.800Z,8.68
2022-08-01T20:13:51.472Z,7.03
2022-08-01T20:16:18.797Z,7.18
2022-08-01T20:18:45.563Z,8.90
2022-08-01T20:21:13.058Z,5.75
2022-08-01T20:23:41.368Z,6.40
2022-08-01T20:26:08.967Z,4.57
2022-08-01T20:28:43.768Z,5.25
2022-08-01T20:31:12.621Z,7.57
2022-08-01T20:33:45.407Z,8.27
2022-08-01T20:36:25.733Z,5.95
2022-08-01T20:38:55.113Z,7.97
2022-08-01T20:41:27.301Z,5.78
2022-08-01T20:43:55.426Z,5.30
2022-08-01T20:46:27.317Z,5.50
2022-08-01T20:48:56.073Z,8.68
2022-08-01T20:51:27.212Z,5.45
2022-08-01T20:53:55.840Z,6.57
2022-08-01T20:56:39.530Z,7.23
2022-08-01T20:59:51.545Z,5.03
2022-08-01T21:03:02.656Z,7.85
2022-08-01T21:05:37.023Z,5.65
2022-08-01T21:08:16.186Z,6.15
2022-08-01T21:10:46.116Z,6.33
2022-08-01T21:13:24.168Z,7.80
2022-08-01T21:16:21.941Z,4.43
2022-08-01T21:22:17.043Z,5.90
2022-08-01T21:25:06.590Z,6.43
2022-08-01T21:27:37.373Z,8.32
2022-08-01T21:30:08.500Z,9.30
2022-08-01T21:32:44.526Z,6.45
2022-08-01T21:35:25.331Z,9.40
2022-08-01T21:37:59.872Z,7.03
2022-08-01T21:40:30.427Z,5.88
2022-08-01T21:43:04.593Z,9.07
2022-08-01T21:45:33.489Z,6.47
2022-08-01T21:48:07.218Z,9.35
2022-08-01T21:51:05.602Z,7.93
2022-08-01T21:53:56.248Z,8.90
2022-08-01T21:56:34.068Z,6.53
2022-08-01T21:59:13.545Z,8.35
2022-08-01T22:01:59.552Z,6.50
2022-08-01T22:04:42.749Z,5.63
2022-08-01T22:07:12.525Z,7.55
2022-08-01T22:09:42.059Z,6.50
2022-08-01T22:12:08.972Z,5.78
2022-08-01T22:14:41.885Z,6.80
2022-08-01T22:17:13.599Z,6.77
2022-08-01T22:19:46.276Z,5.20
2022-08-01T22:22:45.155Z,4.68
2022-08-01T22:25:01.896Z,8.25
2022-08-01T22:28:03.163Z,7.50
2022-08-01T22:30:18.376Z,6.70
2022-08-01T22:33:07.982Z,9.20
2022-08-01T22:35:35.294Z,11.23
2022-08-01T22:38:02.029Z,6.38
2022-08-01T22:40:32.983Z,10.13
2022-08-01T22:43:03.432Z,11.43
2022-08-01T22:46:10.644Z,10.30
2022-08-01T22:49:02.355Z,7.20
2022-08-01T22:51:43.849Z,7.78
2022-08-01T22:54:29.095Z,5.57
2022-08-01T22:56:57.045Z,7.67
2022-08-01T22:59:42.611Z,7.63
2022-08-01T23:02:12.704Z,4.55
2022-08-01T23:04:44.005Z,5.03
2022-08-01T23:07:11.854Z,9.02
2022-08-01T23:17:26.310Z,7.93
2022-08-01T23:20:19.728Z,7.57
2022-08-01T23:22:54.813Z,5.70
2022-08-01T23:25:23.831Z,5.93
2022-08-01T23:28:12.416Z,7.18
2022-08-01T23:30:39.188Z,4.15
2022-08-01T23:33:11.115Z,8.73
2022-08-01T23:35:42.131Z,6.20
2022-08-01T23:38:10.804Z,4.47
2022-08-01T23:40:38.378Z,6.60
2022-08-01T23:43:06.399Z,8.00
2022-08-01T23:46:04.449Z,9.13
2022-08-01T23:48:29.384Z,6.10
2022-08-01T23:50:59.929Z,9.83
2022-08-01T23:54:05.206Z,13.20
2022-08-01T23:56:36.097Z,8.15
